Time;durP1;ratioP1;P1;durP2;ratioP2;P2;SDS_P1;SDS_P2;PMS_P1;PMS_P2;Temp;Humidity;BMP_temperature;BMP_pressure;BME280_temperature;BME280_humidity;BME280_pressure;Samples;Min_cycle;Max_cycle;Signal;HPM_P1;HPM_P2
2022/04/28 00:02:05;;;;;;;26.70;10.85;;;;;;;5.25;97.83;103130.28;5005540;28;20068;-74
2022/04/28 00:04:34;;;;;;;27.38;10.13;;;;;;;5.23;97.67;103135.38;5002987;28;20108;-72
2022/04/28 00:07:03;;;;;;;25.17;9.40;;;;;;;5.22;98.23;103145.66;5005383;28;20141;-72
2022/04/28 00:09:30;;;;;;;28.15;9.88;;;;;;;5.24;97.96;103144.06;5002991;28;20060;-73
2022/04/28 00:11:58;;;;;;;28.23;9.85;;;;;;;5.21;97.76;103142.16;5000739;28;20137;-73
2022/04/28 00:14:26;;;;;;;30.75;10.68;;;;;;;5.18;98.52;103146.28;4999623;28;20685;-73
2022/04/28 00:16:57;;;;;;;26.65;11.15;;;;;;;5.14;97.66;103144.25;5002652;28;20046;-73
2022/04/28 00:19:26;;;;;;;23.70;11.23;;;;;;;5.11;97.82;103138.81;5000845;28;20129;-72
2022/04/28 00:21:54;;;;;;;27.85;11.20;;;;;;;5.10;98.28;103142.22;5003283;28;20100;-72
2022/04/28 00:24:22;;;;;;;23.65;11.55;;;;;;;5.03;97.97;103137.38;5002598;28;20060;-72
2022/04/28 00:26:50;;;;;;;31.92;13.30;;;;;;;5.03;99.40;103145.16;4999917;28;20054;-73
2022/04/28 00:29:18;;;;;;;30.73;12.18;;;;;;;4.99;98.37;103140.53;5003510;28;20084;-73
2022/04/28 00:31:46;;;;;;;23.92;10.38;;;;;;;5.00;98.79;103139.75;5004487;28;20065;-72
2022/04/28 00:34:16;;;;;;;29.70;11.80;;;;;;;4.96;98.63;103129.91;5002451;28;20065;-72
2022/04/28 00:36:47;;;;;;;33.30;12.57;;;;;;;4.91;98.83;103135.69;5002003;28;20061;-76
2022/04/28 00:39:15;;;;;;;24.42;11.65;;;;;;;4.90;98.56;103127.78;5003755;28;20144;-73
2022/04/28 00:41:42;;;;;;;34.40;11.60;;;;;;;4.89;99.50;103132.06;5033927;28;20050;-72
2022/04/28 00:44:11;;;;;;;30.20;11.30;;;;;;;4.86;98.89;103131.84;5002321;28;20054;-73
2022/04/28 00:46:40;;;;;;;30.30;11.60;;;;;;;4.82;98.79;103129.81;5001650;28;20054;-73
2022/04/28 00:51:56;;;;;;;30.10;13.35;;;;;;;4.83;99.57;103131.63;4999243;28;20497;-73
2022/04/28 00:54:29;;;;;;;28.92;13.48;;;;;;;4.76;99.38;103129.38;5000976;28;20227;-72
2022/04/28 00:56:57;;;;;;;32.10;11.65;;;;;;;4.74;99.08;103136.16;5001554;28;20062;-75
2022/04/28 00:59:28;;;;;;;29.65;12.25;;;;;;;4.68;99.54;103138.31;5000035;28;20049;-76
2022/04/28 01:01:58;;;;;;;31.15;12.05;;;;;;;4.67;98.95;103138.19;4999896;28;20053;-76
2022/04/28 01:04:27;;;;;;;36.30;13.25;;;;;;;4.63;98.79;103137.06;5000609;28;20641;-76
2022/04/28 01:06:56;;;;;;;33.35;12.88;;;;;;;4.58;98.57;103133.22;5006073;28;20104;-76
2022/04/28 01:09:24;;;;;;;32.13;12.38;;;;;;;4.63;99.62;103134.47;5003545;28;20155;-76
2022/04/28 01:11:53;;;;;;;32.53;12.85;;;;;;;4.55;98.46;103133.00;5002339;28;20101;-76
2022/04/28 01:14:21;;;;;;;34.28;11.63;;;;;;;4.55;100.00;103133.00;5002038;28;20057;-75
2022/04/28 01:16:49;;;;;;;25.50;10.70;;;;;;;4.51;99.66;103125.75;5001665;28;20158;-76
2022/04/28 01:19:19;;;;;;;25.05;10.40;;;;;;;4.47;99.20;103123.72;5003054;28;20046;-77
2022/04/28 01:21:52;;;;;;;22.25;10.43;;;;;;;4.48;99.88;103135.94;5001171;28;20054;-72
2022/04/28 01:24:20;;;;;;;29.25;11.40;;;;;;;4.46;100.00;103127.13;4999490;28;21645;-72
2022/04/28 01:26:49;;;;;;;28.95;11.63;;;;;;;4.46;100.00;103133.22;4999041;28;20058;-72
2022/04/28 01:29:17;;;;;;;29.83;11.90;;;;;;;4.47;100.00;103136.72;5000844;28;21873;-72
2022/04/28 01:31:45;;;;;;;32.38;12.55;;;;;;;4.43;100.00;103127.78;5002351;28;20046;-72
2022/04/28 01:34:13;;;;;;;28.92;11.52;;;;;;;4.38;99.90;103128.22;4999797;28;20058;-72
2022/04/28 01:36:41;;;;;;;25.63;9.82;;;;;;;4.36;100.00;103140.22;5002026;28;20069;-72
2022/04/28 01:39:10;;;;;;;27.27;11.75;;;;;;;4.29;100.00;103133.66;5001567;28;20501;-72
2022/04/28 01:41:38;;;;;;;34.47;12.73;;;;;;;4.30;100.00;103137.16;5003773;28;20137;-72
2022/04/28 01:44:09;;;;;;;33.33;12.63;;;;;;;4.31;100.00;103131.16;5001329;28;20168;-72
2022/04/28 01:46:37;;;;;;;35.55;12.68;;;;;;;4.32;100.00;103139.06;4999376;28;20145;-72
2022/04/28 01:49:07;;;;;;;35.50;12.43;;;;;;;4.30;100.00;103140.66;5001187;28;20042;-73
2022/04/28 01:57:24;;;;;;;32.95;12.38;;;;;;;4.22;100.00;103139.16;4986688;28;20112;-72
2022/04/28 01:59:58;;;;;;;31.25;12.90;;;;;;;4.26;100.00;103143.81;5003616;28;20104;-74
2022/04/28 02:02:27;;;;;;;32.05;13.45;;;;;;;4.18;100.00;103139.72;5003653;28;20517;-77
2022/04/28 02:04:59;;;;;;;31.38;12.85;;;;;;;4.17;100.00;103137.91;5006345;28;20233;-75
2022/04/28 02:07:27;;;;;;;29.67;12.38;;;;;;;4.14;100.00;103133.44;5005585;28;20065;-75
2022/04/28 02:09:58;;;;;;;28.08;11.93;;;;;;;4.10;100.00;103136.59;5006152;28;20045;-75
2022/04/28 02:12:28;;;;;;;28.77;11.55;;;;;;;4.07;100.00;103143.22;5006362;28;20289;-76
2022/04/28 02:15:00;;;;;;;29.23;12.35;;;;;;;4.04;100.00;103136.13;5007009;28;20358;-75
2022/04/28 02:17:28;;;;;;;28.45;12.23;;;;;;;4.04;100.00;103137.81;5005463;28;20535;-75
2022/04/28 02:19:59;;;;;;;31.20;12.32;;;;;;;3.94;100.00;103144.91;5008245;28;20132;-76
2022/04/28 02:22:27;;;;;;;29.58;12.18;;;;;;;3.95;100.00;103135.41;5005201;28;20046;-73
2022/04/28 02:24:55;;;;;;;28.83;11.70;;;;;;;3.86;100.00;103137.31;5002776;28;20061;-71
2022/04/28 02:27:27;;;;;;;42.33;14.48;;;;;;;3.90;100.00;103141.94;5000013;28;20817;-72
2022/04/28 02:29:56;;;;;;;28.55;11.93;;;;;;;3.84;100.00;103144.97;5005568;28;20135;-74
2022/04/28 02:32:24;;;;;;;31.00;11.48;;;;;;;3.84;100.00;103141.47;5004110;28;20081;-76
2022/04/28 02:34:52;;;;;;;36.42;13.25;;;;;;;3.85;100.00;103144.19;5004843;28;20081;-76
2022/04/28 02:37:20;;;;;;;35.42;13.70;;;;;;;3.88;100.00;103146.13;5007260;28;20200;-76
2022/04/28 02:39:48;;;;;;;26.17;11.90;;;;;;;3.86;100.00;103145.09;5003781;28;20145;-76
2022/04/28 02:42:16;;;;;;;36.83;13.48;;;;;;;3.88;100.00;103141.81;5002919;28;20137;-77
2022/04/28 02:44:46;;;;;;;32.97;14.10;;;;;;;3.91;100.00;103139.47;5002577;28;20054;-76
2022/04/28 02:47:18;;;;;;;37.03;15.50;;;;;;;3.91;100.00;103139.47;5009543;28;20049;-76
2022/04/28 02:49:48;;;;;;;32.40;13.00;;;;;;;3.86;100.00;103138.22;5008012;28;20117;-75
2022/04/28 02:52:16;;;;;;;36.63;15.40;;;;;;;3.88;100.00;103138.31;5007709;28;20104;-74
2022/04/28 02:54:44;;;;;;;36.22;12.68;;;;;;;3.86;100.00;103139.91;5012545;28;20054;-75
2022/04/28 02:57:11;;;;;;;30.90;13.27;;;;;;;3.81;100.00;103142.13;5012653;28;20096;-75
2022/04/28 02:59:39;;;;;;;33.10;14.18;;;;;;;3.84;100.00;103137.19;5010921;28;20081;-75
2022/04/28 03:02:08;;;;;;;30.65;13.98;;;;;;;3.81;100.00;103149.94;5012872;28;20045;-76
2022/04/28 03:04:36;;;;;;;36.72;14.63;;;;;;;3.79;100.00;103143.72;5011797;28;20054;-75
2022/04/28 03:12:37;;;;;;;32.67;13.18;;;;;;;3.69;100.00;103142.88;5005580;28;20092;-77
2022/04/28 03:15:07;;;;;;;36.05;14.57;;;;;;;3.66;100.00;103137.44;5005848;28;20498;-75
2022/04/28 03:17:37;;;;;;;47.05;16.45;;;;;;;3.67;100.00;103134.06;5007048;28;20041;-75
2022/04/28 03:20:06;;;;;;;37.17;14.57;;;;;;;3.63;100.00;103138.13;5004830;28;20084;-75
2022/04/28 03:22:36;;;;;;;35.55;14.80;;;;;;;3.63;100.00;103132.94;5006216;28;20110;-76
2022/04/28 03:25:04;;;;;;;34.42;14.85;;;;;;;3.62;100.00;103138.91;5003290;28;20082;-75
2022/04/28 03:27:32;;;;;;;33.47;13.93;;;;;;;3.61;100.00;103137.09;5003885;28;20077;-75
2022/04/28 03:30:00;;;;;;;32.53;14.32;;;;;;;3.57;100.00;103135.94;5003501;28;20045;-75
2022/04/28 03:32:28;;;;;;;42.17;15.27;;;;;;;3.59;100.00;103143.84;5004373;28;20101;-74
2022/04/28 03:34:58;;;;;;;38.90;16.08;;;;;;;3.60;100.00;103135.28;5005069;28;20148;-75
2022/04/28 03:37:26;;;;;;;37.33;16.30;;;;;;;3.64;100.00;103139.94;5004448;28;20435;-75
2022/04/28 03:39:54;;;;;;;38.42;14.85;;;;;;;3.61;100.00;103138.00;5007522;28;20080;-76
2022/04/28 03:42:21;;;;;;;41.70;15.35;;;;;;;3.63;100.00;103137.22;5004472;28;20041;-76
2022/04/28 03:44:49;;;;;;;31.52;14.05;;;;;;;3.63;100.00;103145.00;5002182;28;20058;-76
2022/04/28 03:47:17;;;;;;;34.97;14.05;;;;;;;3.61;100.00;103150.06;5004023;28;20058;-75
2022/04/28 03:49:45;;;;;;;37.00;15.48;;;;;;;3.61;100.00;103140.59;5003174;28;20112;-75
2022/04/28 03:52:14;;;;;;;33.92;16.33;;;;;;;3.58;100.00;103140.34;5001604;28;20065;-75
2022/04/28 03:54:42;;;;;;;36.35;14.98;;;;;;;3.59;100.00;103144.75;5000928;28;20075;-75
2022/04/28 03:57:10;;;;;;;33.22;15.10;;;;;;;3.63;100.00;103145.91;5002582;28;20145;-76
2022/04/28 03:59:37;;;;;;;41.25;16.20;;;;;;;3.63;100.00;103139.81;5004195;28;20486;-75
2022/04/28 04:02:08;;;;;;;36.78;15.18;;;;;;;3.64;100.00;103137.34;5007212;28;20058;-71
2022/04/28 04:04:36;;;;;;;40.47;16.08;;;;;;;3.62;100.00;103133.72;5001215;28;20054;-72
2022/04/28 04:07:07;;;;;;;37.25;15.70;;;;;;;3.63;100.00;103134.63;5002890;28;20049;-73
2022/04/28 04:09:37;;;;;;;36.47;14.95;;;;;;;3.61;100.00;103138.00;5003089;28;20100;-72
2022/04/28 04:12:05;;;;;;;36.67;14.80;;;;;;;3.59;100.00;103144.75;5003453;28;20112;-73
2022/04/28 04:14:33;;;;;;;37.47;13.70;;;;;;;3.56;100.00;103144.53;5003573;28;20081;-74
2022/04/28 04:17:01;;;;;;;34.38;14.77;;;;;;;3.61;100.00;103148.38;5002795;28;20579;-75
2022/04/28 04:19:29;;;;;;;30.35;12.35;;;;;;;3.61;100.00;103142.28;5007710;28;20077;-75
2022/04/28 04:21:58;;;;;;;39.78;15.25;;;;;;;3.64;100.00;103146.81;5000680;28;20080;-76
2022/04/28 04:24:27;;;;;;;31.23;14.15;;;;;;;3.67;100.00;103153.16;5002615;28;20054;-76
2022/04/28 04:26:57;;;;;;;38.30;14.00;;;;;;;3.68;100.00;103160.13;5003119;28;20173;-76
2022/04/28 04:29:26;;;;;;;36.25;14.75;;;;;;;3.67;100.00;103152.25;5002289;28;20093;-76
2022/04/28 04:34:38;;;;;;;33.10;12.93;;;;;;;3.69;100.00;103158.44;5006826;28;20117;-75
2022/04/28 04:37:06;;;;;;;26.83;12.50;;;;;;;3.67;100.00;103149.66;5003148;28;20061;-76
2022/04/28 04:39:34;;;;;;;31.00;13.20;;;;;;;3.70;100.00;103157.66;5005143;28;20049;-77
2022/04/28 04:42:08;;;;;;;30.40;12.80;;;;;;;3.71;100.00;103160.38;5003562;28;20089;-77
2022/04/28 04:44:36;;;;;;;25.47;11.70;;;;;;;3.72;100.00;103162.19;5002960;28;20057;-77
2022/04/28 04:47:05;;;;;;;34.42;13.52;;;;;;;3.71;100.00;103169.84;5001786;28;20053;-77
2022/04/28 04:49:33;;;;;;;25.73;12.35;;;;;;;3.71;100.00;103175.06;5005208;28;20116;-76
2022/04/28 04:52:02;;;;;;;24.80;10.82;;;;;;;3.72;100.00;103176.84;5000365;28;20058;-76
2022/04/28 04:54:30;;;;;;;30.00;12.93;;;;;;;3.76;100.00;103173.72;5000861;28;20153;-77
2022/04/28 04:56:58;;;;;;;27.10;11.52;;;;;;;3.79;100.00;103185.25;5002751;28;20076;-75
2022/04/28 04:59:28;;;;;;;24.23;12.30;;;;;;;3.83;100.00;103181.19;5003325;28;20054;-75
2022/04/28 05:01:56;;;;;;;25.33;11.10;;;;;;;3.85;100.00;103180.53;4998684;28;20056;-76
2022/04/28 05:04:25;;;;;;;22.90;11.05;;;;;;;3.90;100.00;103188.66;5000275;28;20045;-75
2022/04/28 05:06:53;;;;;;;24.15;11.50;;;;;;;3.93;100.00;103197.59;5001066;28;20050;-75
2022/04/28 05:09:20;;;;;;;27.48;11.68;;;;;;;3.98;100.00;103200.56;4998796;28;20401;-76
2022/04/28 05:11:49;;;;;;;21.45;10.13;;;;;;;4.07;100.00;103195.16;5003136;28;20049;-75
2022/04/28 05:14:17;;;;;;;27.38;11.93;;;;;;;4.15;100.00;103202.75;5000471;28;20141;-75
2022/04/28 05:16:46;;;;;;;22.10;11.35;;;;;;;4.20;100.00;103196.19;5001589;28;20076;-76
2022/04/28 05:19:15;;;;;;;20.70;9.95;;;;;;;4.33;100.00;103197.13;5005683;28;20050;-76
2022/04/28 05:21:43;;;;;;;28.65;11.52;;;;;;;4.44;100.00;103202.34;4999717;28;20061;-76
2022/04/28 05:24:10;;;;;;;23.55;11.18;;;;;;;4.55;100.00;103198.88;5002460;28;20479;-75
2022/04/28 05:26:38;;;;;;;23.50;11.55;;;;;;;4.70;100.00;103206.91;4997741;28;20045;-75
2022/04/28 05:29:07;;;;;;;22.25;10.32;;;;;;;4.85;100.00;103208.03;5005021;28;20049;-75
2022/04/28 05:31:39;;;;;;;23.05;10.55;;;;;;;4.99;100.00;103208.16;5006980;28;20537;-77
2022/04/28 05:34:09;;;;;;;23.48;10.77;;;;;;;5.15;100.00;103198.97;5003783;28;20076;-77
2022/04/28 05:36:38;;;;;;;26.27;10.77;;;;;;;5.35;100.00;103217.69;5005554;28;20140;-77
2022/04/28 05:39:06;;;;;;;24.55;10.73;;;;;;;5.55;100.00;103220.03;5005693;28;20073;-76
2022/04/28 05:41:37;;;;;;;21.10;9.40;;;;;;;5.77;99.84;103214.66;5000012;28;20070;-76
2022/04/28 05:46:51;;;;;;;23.50;10.55;;;;;;;6.22;97.47;103235.22;5006036;28;20077;-76
2022/04/28 05:49:22;;;;;;;23.92;11.25;;;;;;;6.36;96.41;103236.13;5005445;28;20493;-77
2022/04/28 05:51:50;;;;;;;23.75;11.18;;;;;;;6.60;96.15;103240.41;5000049;28;20474;-78
2022/04/28 05:54:20;;;;;;;18.75;9.85;;;;;;;6.80;95.36;103241.75;5001211;28;20042;-76
2022/04/28 05:56:48;;;;;;;21.10;9.13;;;;;;;6.94;93.52;103245.28;5000355;28;20057;-76
2022/04/28 05:59:16;;;;;;;18.92;10.13;;;;;;;7.12;92.51;103239.56;5007524;28;20085;-77
2022/04/28 06:01:44;;;;;;;20.13;8.68;;;;;;;7.28;89.94;103251.00;5006139;28;20057;-77
2022/04/28 06:04:12;;;;;;;17.42;9.13;;;;;;;7.41;89.25;103246.66;5011808;28;20103;-76
2022/04/28 06:06:41;;;;;;;19.23;8.52;;;;;;;7.46;86.80;103255.69;5013097;28;20050;-71
2022/04/28 06:09:11;;;;;;;14.38;8.23;;;;;;;7.71;85.73;103246.78;5013309;28;20551;-73
2022/04/28 06:11:39;;;;;;;17.17;9.00;;;;;;;7.71;83.96;103244.19;5007281;28;20050;-73
2022/04/28 06:14:07;;;;;;;17.23;8.40;;;;;;;7.96;83.71;103252.75;5005414;28;20140;-73
2022/04/28 06:16:36;;;;;;;18.88;9.40;;;;;;;8.07;80.56;103249.09;5014436;28;20085;-71
2022/04/28 06:19:04;;;;;;;19.67;8.43;;;;;;;8.14;80.65;103255.59;5011934;28;20046;-73
2022/04/28 06:21:34;;;;;;;16.85;7.82;;;;;;;8.28;80.13;103256.44;5008786;28;20057;-73
2022/04/28 06:24:04;;;;;;;21.13;8.38;;;;;;;8.45;79.65;103267.13;5004786;28;20540;-73
2022/04/28 06:26:32;;;;;;;18.98;7.20;;;;;;;8.66;77.26;103267.50;5006471;28;20053;-72
2022/04/28 06:29:01;;;;;;;14.70;7.45;;;;;;;8.94;76.91;103267.41;5002509;28;20279;-73
2022/04/28 06:31:31;;;;;;;21.73;8.38;;;;;;;9.19;75.79;103269.75;5002349;28;20046;-73
2022/04/28 06:33:59;;;;;;;17.38;7.57;;;;;;;9.48;74.75;103274.88;5001695;28;20052;-75
2022/04/28 06:36:27;;;;;;;13.43;7.38;;;;;;;9.49;72.72;103274.06;5006448;28;20411;-73
2022/04/28 06:38:54;;;;;;;17.35;7.53;;;;;;;9.29;71.98;103273.78;5003200;28;20046;-72
2022/04/28 06:41:25;;;;;;;16.67;7.45;;;;;;;9.48;70.25;103280.13;5007370;28;20128;-73
2022/04/28 06:43:53;;;;;;;13.68;6.63;;;;;;;9.63;70.62;103284.44;5007492;28;20486;-74
2022/04/28 06:46:21;;;;;;;16.65;7.32;;;;;;;9.64;69.06;103284.50;5005197;28;20145;-73
2022/04/28 06:48:49;;;;;;;15.60;6.78;;;;;;;9.71;67.65;103281.41;5007401;28;20081;-73
2022/04/28 06:51:16;;;;;;;15.38;6.88;;;;;;;9.89;68.09;103288.50;5007123;28;20105;-74
2022/04/28 06:53:44;;;;;;;17.15;7.40;;;;;;;9.98;67.36;103286.38;5001046;28;20049;-73
2022/04/28 06:56:12;;;;;;;16.38;6.25;;;;;;;10.14;66.44;103292.53;5000793;28;20494;-72
2022/04/28 06:58:42;;;;;;;13.88;6.25;;;;;;;10.24;66.60;103285.19;5002922;28;20447;-72
2022/04/28 07:01:10;;;;;;;18.95;7.47;;;;;;;10.38;66.44;103289.47;5000675;28;20136;-72
2022/04/28 07:03:40;;;;;;;12.43;6.63;;;;;;;10.45;65.15;103297.69;5003104;28;20052;-72
2022/04/28 07:06:08;;;;;;;13.63;6.75;;;;;;;10.63;64.79;103294.25;5004258;28;20057;-74
2022/04/28 07:08:35;;;;;;;14.60;6.00;;;;;;;10.72;64.51;103300.88;5004478;28;20104;-73
2022/04/28 07:11:03;;;;;;;16.42;6.75;;;;;;;10.69;63.01;103302.44;5007410;28;20330;-72
2022/04/28 07:13:31;;;;;;;16.30;5.88;;;;;;;10.88;63.01;103313.06;5001944;28;20149;-73
2022/04/28 07:16:05;;;;;;;13.25;6.05;;;;;;;10.86;62.98;103309.44;5003555;28;20092;-73
2022/04/28 07:18:34;;;;;;;15.65;6.72;;;;;;;10.84;63.13;103311.09;5002869;28;20074;-73
2022/04/28 07:21:02;;;;;;;14.13;6.88;;;;;;;11.24;62.12;103303.50;5002397;28;20053;-72
2022/04/28 07:23:37;;;;;;;12.18;6.47;;;;;;;11.30;61.43;103314.31;5001623;28;20054;-72
2022/04/28 07:26:05;;;;;;;15.88;6.63;;;;;;;11.22;61.04;103315.66;5002932;28;20077;-74
2022/04/28 07:28:33;;;;;;;15.18;7.22;;;;;;;11.27;60.58;103313.28;5002310;28;20100;-73
2022/04/28 07:31:01;;;;;;;14.35;6.40;;;;;;;11.36;60.08;103314.63;5001259;28;20050;-72
2022/04/28 07:33:30;;;;;;;11.35;5.85;;;;;;;11.58;60.85;103315.63;4997558;28;20137;-74
2022/04/28 07:35:58;;;;;;;13.98;6.53;;;;;;;11.52;59.34;103320.59;5000942;28;20682;-73
2022/04/28 07:38:26;;;;;;;13.60;5.95;;;;;;;11.68;59.21;103317.88;5000110;28;20145;-73
2022/04/28 07:40:55;;;;;;;16.63;6.80;;;;;;;11.72;59.50;103322.47;5000612;28;20081;-73
2022/04/28 07:43:25;;;;;;;13.82;6.57;;;;;;;11.78;57.62;103323.69;5003238;28;20058;-73
2022/04/28 07:45:53;;;;;;;14.63;6.93;;;;;;;11.92;58.15;103319.09;5006234;28;20069;-73
2022/04/28 07:48:21;;;;;;;14.05;6.38;;;;;;;11.95;58.11;103324.50;5004956;28;20054;-73
2022/04/28 07:50:51;;;;;;;14.65;5.65;;;;;;;12.08;57.71;103324.25;5000412;28;20054;-74
2022/04/28 07:53:19;;;;;;;15.43;6.55;;;;;;;11.94;57.42;103334.94;4998948;28;20361;-77
2022/04/28 07:56:10;;;;;;;13.07;6.22;;;;;;;12.45;57.16;103328.56;5000192;28;20073;-76
2022/04/28 07:58:35;;;;;;;14.38;5.63;;;;;;;12.31;55.42;103329.66;5004257;28;20056;-77
2022/04/28 08:01:06;;;;;;;11.30;5.60;;;;;;;12.38;55.45;103331.75;5001519;28;20046;-77
2022/04/28 08:03:34;;;;;;;12.07;4.97;;;;;;;12.27;55.88;103336.50;5005730;28;20812;-76
2022/04/28 08:06:03;;;;;;;20.58;6.70;;;;;;;12.39;55.48;103333.53;5005108;28;20046;-77
2022/04/28 08:08:31;;;;;;;17.27;6.03;;;;;;;12.58;55.31;103337.88;5004645;28;20053;-73
2022/04/28 08:10:59;;;;;;;14.80;6.00;;;;;;;12.46;55.05;103342.63;5001779;28;20140;-73
2022/04/28 08:13:27;;;;;;;10.50;5.43;;;;;;;12.90;55.15;103331.41;5000851;28;20073;-72
2022/04/28 08:15:57;;;;;;;11.68;5.57;;;;;;;12.69;54.87;103328.72;5004523;28;20124;-72
2022/04/28 08:18:27;;;;;;;14.23;6.10;;;;;;;12.92;54.25;103335.00;5032135;28;20057;-73
2022/04/28 08:20:58;;;;;;;11.93;6.20;;;;;;;13.48;53.42;103336.53;5001929;28;20058;-76
2022/04/28 08:23:27;;;;;;;13.25;6.65;;;;;;;13.36;53.58;103336.91;5004333;28;20080;-77
2022/04/28 08:25:56;;;;;;;12.15;6.15;;;;;;;13.50;53.80;103329.56;5001600;28;20058;-73
2022/04/28 08:28:24;;;;;;;12.23;5.90;;;;;;;13.57;52.73;103335.13;5002917;28;20073;-77
2022/04/28 08:31:00;;;;;;;11.82;5.20;;;;;;;13.70;52.06;103331.25;5003603;28;20613;-77
2022/04/28 08:33:27;;;;;;;12.80;5.40;;;;;;;13.59;52.06;103329.91;5006173;28;20677;-76
2022/04/28 08:36:00;;;;;;;15.13;5.68;;;;;;;13.27;52.98;103329.53;5002502;28;20050;-78
2022/04/28 08:38:29;;;;;;;12.93;4.97;;;;;;;13.87;51.73;103332.81;5005884;28;20120;-77
2022/04/28 08:41:01;;;;;;;15.13;5.47;;;;;;;13.56;51.66;103338.59;5019448;28;20112;-79
2022/04/28 08:43:31;;;;;;;11.35;5.63;;;;;;;13.58;51.51;103336.94;5003572;28;20355;-77
2022/04/28 08:48:54;;;;;;;14.00;5.90;;;;;;;13.59;52.29;103332.56;5005109;28;20148;-78
2022/04/28 08:53:56;;;;;;;10.45;5.18;;;;;;;13.76;52.30;103331.50;7415552;19;20392;-80
2022/04/28 08:56:30;;;;;;;13.80;6.40;;;;;;;14.05;50.87;103322.97;7418430;19;20039;-80
2022/04/28 08:59:05;;;;;;;13.35;6.45;;;;;;;14.16;50.58;103327.75;7420398;19;20007;-78
2022/04/28 09:01:41;;;;;;;11.88;6.20;;;;;;;14.14;51.48;103329.44;7420661;19;20467;-80
2022/04/28 09:04:13;;;;;;;11.48;5.75;;;;;;;14.32;51.13;103328.41;7417914;19;20014;-73
2022/04/28 09:06:45;;;;;;;15.93;6.03;;;;;;;14.43;50.32;103325.28;7417020;19;20459;-75
2022/04/28 09:09:21;;;;;;;11.50;6.05;;;;;;;14.13;51.02;103325.91;7415365;19;20017;-74
2022/04/28 09:11:53;;;;;;;12.55;6.47;;;;;;;14.07;50.88;103331.84;7417889;19;20007;-75
2022/04/28 09:14:24;;;;;;;14.93;5.97;;;;;;;14.22;50.46;103330.63;7421543;19;20137;-74
2022/04/28 09:16:56;;;;;;;14.13;7.35;;;;;;;14.99;50.07;103319.38;7425670;19;20015;-73
2022/04/28 09:19:28;;;;;;;12.75;6.80;;;;;;;14.75;49.83;103314.13;7426395;19;20018;-74
2022/04/28 09:22:00;;;;;;;13.75;6.40;;;;;;;14.04;51.06;103322.91;7419466;19;20002;-72
2022/04/28 09:24:33;;;;;;;12.57;6.45;;;;;;;14.42;51.09;103327.03;7425417;19;20034;-73
2022/04/28 09:27:05;;;;;;;11.30;6.63;;;;;;;14.27;51.07;103318.50;7425802;19;20541;-73
2022/04/28 09:29:39;;;;;;;12.85;6.78;;;;;;;13.94;51.99;103321.66;7429295;19;20018;-73
2022/04/28 09:32:15;;;;;;;13.82;6.78;;;;;;;14.05;51.96;103330.91;7426175;19;20014;-73
2022/04/28 09:35:17;;;;;;;18.50;7.40;;;;;;;13.96;52.07;103319.97;7419967;19;20501;-73
2022/04/28 09:37:47;;;;;;;15.75;6.90;;;;;;;14.18;51.32;103312.88;7418548;19;20035;-72
2022/04/28 09:43:06;;;;;;;15.50;6.40;;;;;;;14.29;51.00;103301.88;7416917;19;20043;-72
2022/04/28 09:45:36;;;;;;;14.48;5.90;;;;;;;14.45;49.98;103316.59;7416666;19;20082;-72
2022/04/28 09:48:09;;;;;;;11.27;5.43;;;;;;;14.30;49.35;103321.25;7418184;19;20279;-72
2022/04/28 09:50:41;;;;;;;12.25;6.72;;;;;;;14.36;50.10;103317.13;7418644;19;20050;-72
2022/04/28 09:53:11;;;;;;;11.27;5.88;;;;;;;14.69;49.66;103312.16;7411399;19;20505;-73
2022/04/28 09:55:50;;;;;;;13.40;7.18;;;;;;;14.84;49.75;103318.84;7418148;19;20014;-72
2022/04/28 09:58:24;;;;;;;12.23;6.00;;;;;;;14.93;48.89;103316.50;7414617;19;20010;-75
2022/04/28 10:01:00;;;;;;;14.80;6.70;;;;;;;15.33;48.95;103309.09;7417961;19;20275;-76
2022/04/28 10:03:33;;;;;;;14.27;6.13;;;;;;;15.43;48.14;103304.09;7406136;19;20418;-76
2022/04/28 10:06:05;;;;;;;11.48;6.28;;;;;;;14.41;49.30;103312.00;7389606;19;20027;-76
2022/04/28 10:08:37;;;;;;;11.73;6.53;;;;;;;14.22;49.91;103298.97;7388446;19;20454;-76
2022/04/28 10:11:17;;;;;;;12.60;6.03;;;;;;;14.79;49.42;103307.19;7389622;19;20042;-76
2022/04/28 10:13:51;;;;;;;12.52;6.13;;;;;;;14.84;49.38;103309.16;7386877;19;20118;-77
2022/04/28 10:16:23;;;;;;;12.77;6.95;;;;;;;15.08;49.45;103308.22;7388458;19;20027;-76
2022/04/28 10:19:00;;;;;;;12.43;6.88;;;;;;;14.87;48.77;103305.72;7388426;19;20470;-76
2022/04/28 10:21:38;;;;;;;15.13;6.97;;;;;;;14.96;48.70;103293.72;7383642;19;20488;-73
2022/04/28 10:33:13;;;;;;;12.20;6.18;;;;;;;15.34;48.00;103308.22;7384888;19;20483;-74
2022/04/28 10:35:50;;;;;;;14.80;6.68;;;;;;;15.43;47.76;103306.75;7382737;19;20014;-74
2022/04/28 10:38:26;;;;;;;16.50;7.65;;;;;;;15.22;48.29;103305.19;7375516;19;20486;-73
2022/04/28 10:41:02;;;;;;;13.85;7.18;;;;;;;15.56;47.54;103308.94;7381709;19;20002;-73
2022/04/28 10:43:40;;;;;;;12.55;6.60;;;;;;;15.42;48.21;103307.59;7382488;19;20015;-72
2022/04/28 10:46:33;;;;;;;13.95;6.90;;;;;;;15.32;48.49;103312.56;7386144;19;20032;-72
2022/04/28 10:49:06;;;;;;;11.55;6.65;;;;;;;15.99;46.13;103298.81;7382747;19;20456;-75
2022/04/28 10:51:38;;;;;;;14.60;6.80;;;;;;;15.96;46.90;103298.72;7382353;19;20042;-76
2022/04/28 10:54:11;;;;;;;13.68;7.20;;;;;;;16.25;45.61;103309.28;7378810;19;20077;-75
2022/04/28 10:57:02;;;;;;;15.17;6.43;;;;;;;16.15;45.44;103296.63;7384042;19;20474;-75
2022/04/28 10:59:51;;;;;;;11.80;5.68;;;;;;;16.48;45.63;103297.59;7383865;19;20806;-75
2022/04/28 11:02:45;;;;;;;13.32;6.53;;;;;;;16.47;45.07;103300.22;7379778;19;20003;-76
2022/04/28 11:05:38;;;;;;;11.20;6.45;;;;;;;16.80;45.25;103302.88;7383580;19;20018;-78
2022/04/28 11:08:28;;;;;;;14.75;6.10;;;;;;;16.04;45.29;103309.56;7384544;19;20025;-79
2022/04/28 11:11:12;;;;;;;13.77;7.05;;;;;;;16.47;45.44;103295.81;7393595;19;20355;-79
2022/04/28 11:14:05;;;;;;;12.30;6.00;;;;;;;16.33;44.21;103294.53;7396144;19;20015;-80
2022/04/28 11:16:42;;;;;;;13.20;6.10;;;;;;;16.34;45.37;103291.03;7393837;19;20018;-80
2022/04/28 11:19:35;;;;;;;11.75;6.15;;;;;;;16.15;44.55;103294.00;7395815;19;20572;-77
2022/04/28 11:22:11;;;;;;;13.50;6.97;;;;;;;15.92;45.60;103294.19;7389476;19;20022;-78
2022/04/28 11:24:43;;;;;;;16.98;7.45;;;;;;;16.08;44.99;103289.38;7393054;19;20006;-78
2022/04/28 11:27:19;;;;;;;14.45;6.55;;;;;;;15.97;45.54;103295.22;7388881;19;20014;-78
2022/04/28 11:29:59;;;;;;;12.70;7.05;;;;;;;15.78;46.05;103289.34;7392667;19;20419;-78
2022/04/28 11:32:37;;;;;;;14.50;6.53;;;;;;;16.19;45.80;103293.22;7391168;19;20023;-75
2022/04/28 11:35:07;;;;;;;12.23;6.63;;;;;;;15.94;45.37;103295.16;7381579;19;20003;-74
2022/04/28 11:37:41;;;;;;;16.85;6.95;;;;;;;16.14;45.24;103284.25;7379849;19;20050;-76
2022/04/28 11:40:16;;;;;;;13.50;7.50;;;;;;;16.02;46.17;103283.03;7383403;19;20036;-75
2022/04/28 11:43:03;;;;;;;15.68;7.45;;;;;;;16.41;45.92;103271.78;7384050;19;20011;-74
2022/04/28 11:45:37;;;;;;;15.48;7.43;;;;;;;16.33;45.11;103282.19;7389623;19;20521;-79
2022/04/28 11:48:10;;;;;;;14.00;7.28;;;;;;;16.78;44.70;103276.34;7391139;19;20018;-79
2022/04/28 11:50:43;;;;;;;15.73;7.90;;;;;;;16.07;45.35;103271.69;7392889;19;20015;-79
2022/04/28 11:53:13;;;;;;;16.33;8.20;;;;;;;16.17;45.08;103273.75;7393423;19;20030;-79
2022/04/28 11:55:43;;;;;;;15.20;7.40;;;;;;;16.82;43.84;103278.22;7393445;19;20485;-79
2022/04/28 11:58:18;;;;;;;17.27;8.10;;;;;;;16.81;43.98;103283.47;7396485;19;20063;-79
2022/04/28 12:00:52;;;;;;;18.95;7.53;;;;;;;17.09;43.94;103283.34;7392207;19;20011;-78
2022/04/28 12:03:30;;;;;;;17.65;7.70;;;;;;;17.15;44.51;103288.78;7396539;19;20011;-80
2022/04/28 12:06:04;;;;;;;14.23;7.03;;;;;;;16.78;43.69;103280.75;7395765;19;20010;-80
2022/04/28 12:08:36;;;;;;;15.75;8.88;;;;;;;16.80;43.62;103294.94;7396598;19;20021;-81